Terminal Aerodrome Forecast
Issued by NWS

Home | Current Version | Previous Version | Text Only | Print | Product List | Glossary On
Versions: 1 2 3 4 5 6 7 8 9 10 11 12 13 14 15 16 17 18 19 20 21 22 23 24 25 26 27 28
693
FTPQ31 PGUM 041727
TAFGUM
TAF

TAF
PGSN 041727Z 0418/0518 09012KT P6SM VCSH SCT018 SCT040 BKN100
      TEMPO 0418/0422 -SHRA SCT016 BKN030
     FM042300 12013KT P6SM VCSH FEW018 SCT050 BKN100=

USA.gov is the U.S. government's official web portal to all federal, state and local government web resources and services.